sensor_id;sensor_type;location;lat;lon;timestamp;P1;durP1;ratioP1;P2;durP2;ratioP2
19495;SDS011;9888;48.606;9.630;2023-07-13T00:08:55;1999.90;;;999.90;;
19495;SDS011;9888;48.606;9.630;2023-07-13T00:11:30;1999.90;;;999.90;;
19495;SDS011;9888;48.606;9.630;2023-07-13T00:14:00;1999.90;;;999.90;;
19495;SDS011;9888;48.606;9.630;2023-07-13T00:16:48;1999.90;;;999.90;;
19495;SDS011;9888;48.606;9.630;2023-07-13T00:19:16;1999.90;;;999.90;;
19495;SDS011;9888;48.606;9.630;2023-07-13T00:21:45;1999.90;;;999.90;;
19495;SDS011;9888;48.606;9.630;2023-07-13T00:24:18;1999.90;;;999.90;;
19495;SDS011;9888;48.606;9.630;2023-07-13T00:26:49;1999.90;;;999.90;;
19495;SDS011;9888;48.606;9.630;2023-07-13T00:29:18;1999.90;;;999.90;;
19495;SDS011;9888;48.606;9.630;2023-07-13T00:31:57;1999.90;;;999.90;;
19495;SDS011;9888;48.606;9.630;2023-07-13T00:34:45;1999.90;;;999.90;;
19495;SDS011;9888;48.606;9.630;2023-07-13T00:37:14;1999.90;;;999.90;;
19495;SDS011;9888;48.606;9.630;2023-07-13T00:39:47;1999.90;;;999.90;;
19495;SDS011;9888;48.606;9.630;2023-07-13T00:42:14;1999.90;;;999.90;;
19495;SDS011;9888;48.606;9.630;2023-07-13T00:45:00;1999.90;;;999.90;;
19495;SDS011;9888;48.606;9.630;2023-07-13T00:47:27;1999.90;;;999.90;;
19495;SDS011;9888;48.606;9.630;2023-07-13T00:49:57;1999.90;;;999.90;;
19495;SDS011;9888;48.606;9.630;2023-07-13T00:52:26;1999.90;;;999.90;;
19495;SDS011;9888;48.606;9.630;2023-07-13T00:54:55;1999.90;;;999.90;;
19495;SDS011;9888;48.606;9.630;2023-07-13T00:57:24;1999.90;;;999.90;;
19495;SDS011;9888;48.606;9.630;2023-07-13T00:59:55;1999.90;;;999.90;;
19495;SDS011;9888;48.606;9.630;2023-07-13T01:02:27;1999.90;;;999.90;;
19495;SDS011;9888;48.606;9.630;2023-07-13T01:04:57;1999.90;;;999.90;;
19495;SDS011;9888;48.606;9.630;2023-07-13T01:07:24;1999.90;;;999.90;;
19495;SDS011;9888;48.606;9.630;2023-07-13T01:09:53;1999.90;;;999.90;;
19495;SDS011;9888;48.606;9.630;2023-07-13T01:12:21;1999.90;;;999.90;;
19495;SDS011;9888;48.606;9.630;2023-07-13T01:14:56;1242.97;;;587.67;;
19495;SDS011;9888;48.606;9.630;2023-07-13T01:17:28;1999.90;;;999.90;;
19495;SDS011;9888;48.606;9.630;2023-07-13T01:20:03;1999.90;;;999.90;;
19495;SDS011;9888;48.606;9.630;2023-07-13T01:22:33;1999.90;;;999.90;;
19495;SDS011;9888;48.606;9.630;2023-07-13T01:25:02;1999.90;;;999.90;;
19495;SDS011;9888;48.606;9.630;2023-07-13T01:27:29;1999.90;;;999.90;;
19495;SDS011;9888;48.606;9.630;2023-07-13T01:30:03;1999.90;;;999.90;;
19495;SDS011;9888;48.606;9.630;2023-07-13T01:32:31;1999.90;;;999.90;;
19495;SDS011;9888;48.606;9.630;2023-07-13T01:35:02;1999.90;;;999.90;;
19495;SDS011;9888;48.606;9.630;2023-07-13T01:37:33;1999.90;;;999.90;;
19495;SDS011;9888;48.606;9.630;2023-07-13T01:40:04;1999.90;;;999.90;;
19495;SDS011;9888;48.606;9.630;2023-07-13T01:42:34;1999.90;;;999.90;;
19495;SDS011;9888;48.606;9.630;2023-07-13T01:45:05;1999.90;;;999.90;;
19495;SDS011;9888;48.606;9.630;2023-07-13T01:47:33;1999.90;;;999.90;;
19495;SDS011;9888;48.606;9.630;2023-07-13T01:50:01;1999.90;;;999.90;;
19495;SDS011;9888;48.606;9.630;2023-07-13T22:17:00;1999.90;;;999.90;;
19495;SDS011;9888;48.606;9.630;2023-07-13T22:19:29;1999.90;;;999.90;;
19495;SDS011;9888;48.606;9.630;2023-07-13T22:21:58;1999.90;;;999.90;;
19495;SDS011;9888;48.606;9.630;2023-07-13T22:24:26;1999.90;;;999.90;;
19495;SDS011;9888;48.606;9.630;2023-07-13T22:26:57;1519.23;;;824.67;;
19495;SDS011;9888;48.606;9.630;2023-07-13T22:29:27;1999.90;;;999.90;;
19495;SDS011;9888;48.606;9.630;2023-07-13T22:31:59;1999.90;;;999.90;;
19495;SDS011;9888;48.606;9.630;2023-07-13T22:34:32;1999.90;;;999.90;;
19495;SDS011;9888;48.606;9.630;2023-07-13T22:37:06;1522.87;;;829.33;;
19495;SDS011;9888;48.606;9.630;2023-07-13T22:39:36;1999.90;;;999.90;;
19495;SDS011;9888;48.606;9.630;2023-07-13T22:48:56;1999.90;;;999.90;;
19495;SDS011;9888;48.606;9.630;2023-07-13T22:51:31;1536.87;;;847.87;;
19495;SDS011;9888;48.606;9.630;2023-07-13T22:57:25;1504.30;;;813.23;;
19495;SDS011;9888;48.606;9.630;2023-07-13T22:59:53;1587.57;;;893.63;;
19495;SDS011;9888;48.606;9.630;2023-07-13T23:02:24;616.43;;;537.43;;
19495;SDS011;9888;48.606;9.630;2023-07-13T23:04:51;728.57;;;651.57;;
19495;SDS011;9888;48.606;9.630;2023-07-13T23:07:23;661.50;;;583.67;;
19495;SDS011;9888;48.606;9.630;2023-07-13T23:09:52;778.60;;;697.23;;
19495;SDS011;9888;48.606;9.630;2023-07-13T23:12:20;829.90;;;741.50;;
19495;SDS011;9888;48.606;9.630;2023-07-13T23:14:47;857.27;;;766.57;;
19495;SDS011;9888;48.606;9.630;2023-07-13T23:24:11;1547.63;;;857.50;;
19495;SDS011;9888;48.606;9.630;2023-07-13T23:26:40;784.80;;;700.13;;
19495;SDS011;9888;48.606;9.630;2023-07-13T23:29:09;785.73;;;693.03;;
19495;SDS011;9888;48.606;9.630;2023-07-13T23:31:37;812.37;;;730.03;;
19495;SDS011;9888;48.606;9.630;2023-07-13T23:34:10;857.60;;;770.03;;
19495;SDS011;9888;48.606;9.630;2023-07-13T23:36:44;918.17;;;824.10;;
19495;SDS011;9888;48.606;9.630;2023-07-13T23:42:39;1579.57;;;885.97;;
19495;SDS011;9888;48.606;9.630;2023-07-13T23:55:16;1535.00;;;843.60;;
